createdAt,value
2022-09-06T00:01:13.570Z,12.44
2022-09-06T00:04:41.039Z,12.42
2022-09-06T00:08:08.811Z,12.44
2022-09-06T00:11:35.474Z,12.47
2022-09-06T00:15:02.510Z,12.49
2022-09-06T00:18:29.931Z,12.53
2022-09-06T00:21:56.579Z,12.55
2022-09-06T00:25:23.652Z,12.55
2022-09-06T00:28:50.943Z,12.55
2022-09-06T00:32:17.982Z,12.53
2022-09-06T00:35:47.578Z,12.51
2022-09-06T00:39:14.127Z,12.47
2022-09-06T00:42:49.495Z,12.42
2022-09-06T00:46:20.567Z,12.36
2022-09-06T00:49:52.632Z,12.30
2022-09-06T00:53:19.563Z,12.26
2022-09-06T00:56:47.437Z,12.19
2022-09-06T01:00:16.414Z,12.13
2022-09-06T01:03:44.510Z,12.07
2022-09-06T01:07:21.050Z,12.01
2022-09-06T01:11:03.606Z,11.97
2022-09-06T01:14:48.903Z,11.93
2022-09-06T01:18:30.382Z,11.88
2022-09-06T01:22:06.251Z,11.83
2022-09-06T01:25:47.951Z,11.80
2022-09-06T01:29:24.596Z,11.75
2022-09-06T01:32:58.237Z,11.72
2022-09-06T01:36:29.002Z,11.70
2022-09-06T01:39:56.071Z,11.70
2022-09-06T01:43:26.694Z,11.71
2022-09-06T01:47:02.578Z,11.68
2022-09-06T01:50:47.914Z,11.76
2022-09-06T01:54:35.042Z,11.78
2022-09-06T01:58:24.623Z,11.79
2022-09-06T02:02:01.355Z,11.77
2022-09-06T02:05:34.111Z,11.72
2022-09-06T02:09:07.905Z,11.67
2022-09-06T02:12:38.571Z,11.63
2022-09-06T02:16:09.392Z,11.58
2022-09-06T02:19:44.025Z,11.52
2022-09-06T02:23:11.699Z,11.46
2022-09-06T02:26:42.297Z,11.37
2022-09-06T02:30:11.501Z,11.31
2022-09-06T02:33:39.728Z,11.24
2022-09-06T02:37:06.733Z,11.20
2022-09-06T02:40:34.400Z,11.14
2022-09-06T02:44:00.948Z,11.10
2022-09-06T02:47:27.812Z,11.05
2022-09-06T02:50:55.214Z,11.00
2022-09-06T02:54:21.948Z,10.95
2022-09-06T02:57:49.364Z,10.92
2022-09-06T03:01:16.425Z,10.89
2022-09-06T03:04:43.323Z,10.88
2022-09-06T03:08:10.123Z,10.86
2022-09-06T03:11:36.896Z,10.86
2022-09-06T03:15:03.718Z,10.91
2022-09-06T03:18:32.088Z,10.93
2022-09-06T03:21:59.270Z,10.94
2022-09-06T03:25:26.577Z,10.94
2022-09-06T03:28:56.381Z,10.93
2022-09-06T03:32:25.953Z,10.91
2022-09-06T03:35:55.701Z,10.89
2022-09-06T03:39:23.332Z,10.85
2022-09-06T03:42:51.273Z,10.79
2022-09-06T03:46:18.132Z,10.72
2022-09-06T03:49:45.711Z,10.64
2022-09-06T03:53:13.746Z,10.57
2022-09-06T03:56:48.450Z,10.50
2022-09-06T04:00:17.727Z,10.45
2022-09-06T04:03:44.174Z,10.39
2022-09-06T04:07:11.460Z,10.36
2022-09-06T04:10:38.504Z,10.32
2022-09-06T04:14:06.415Z,10.31
2022-09-06T04:17:38.608Z,10.30
2022-09-06T04:21:05.619Z,10.31
2022-09-06T04:24:32.312Z,10.33
2022-09-06T04:27:59.316Z,10.37
2022-09-06T04:31:27.050Z,10.41
2022-09-06T04:34:53.808Z,10.44
2022-09-06T04:38:22.872Z,10.48
2022-09-06T04:41:50.259Z,10.52
2022-09-06T04:45:17.207Z,10.56
2022-09-06T04:48:45.152Z,10.57
2022-09-06T04:52:12.703Z,10.59
2022-09-06T04:55:40.231Z,10.60
2022-09-06T04:59:07.026Z,10.60
2022-09-06T05:02:34.498Z,10.60
2022-09-06T05:06:13.422Z,10.59
2022-09-06T05:09:40.928Z,10.58
2022-09-06T05:13:07.606Z,10.58
2022-09-06T05:16:34.651Z,10.62
2022-09-06T05:20:01.857Z,10.65
2022-09-06T05:23:30.309Z,10.67
2022-09-06T05:26:56.918Z,10.73
2022-09-06T05:30:23.565Z,10.81
2022-09-06T05:33:50.622Z,10.90
2022-09-06T05:37:18.185Z,11.03
2022-09-06T05:40:45.341Z,11.16
2022-09-06T05:44:12.400Z,11.30
2022-09-06T05:47:39.555Z,11.44
2022-09-06T05:51:09.300Z,11.57
2022-09-06T05:54:37.357Z,11.67
2022-09-06T05:58:04.560Z,11.75
2022-09-06T06:01:33.235Z,11.82
2022-09-06T06:05:03.023Z,11.87
2022-09-06T06:08:30.897Z,11.91
2022-09-06T06:11:58.184Z,11.96
2022-09-06T06:15:25.135Z,11.99
2022-09-06T06:18:52.845Z,12.00
2022-09-06T06:22:26.099Z,12.03
2022-09-06T06:25:54.676Z,12.04
2022-09-06T06:29:25.628Z,12.08
2022-09-06T06:32:52.397Z,12.13
2022-09-06T06:36:26.991Z,12.18
2022-09-06T06:40:09.260Z,12.24
2022-09-06T06:43:38.343Z,12.29
2022-09-06T06:47:05.389Z,12.34
2022-09-06T06:50:37.024Z,12.40
2022-09-06T06:54:04.464Z,12.46
2022-09-06T06:57:31.940Z,12.53
2022-09-06T07:00:59.818Z,12.59
2022-09-06T07:04:26.824Z,12.64
2022-09-06T07:07:54.170Z,12.74
2022-09-06T07:11:28.778Z,12.84
2022-09-06T07:14:57.744Z,12.96
2022-09-06T07:18:24.590Z,13.08
2022-09-06T07:21:52.157Z,13.17
2022-09-06T07:25:21.665Z,13.33
2022-09-06T07:28:49.923Z,13.45
2022-09-06T07:32:18.119Z,13.56
2022-09-06T07:35:45.068Z,13.65
2022-09-06T07:39:12.375Z,13.76
2022-09-06T07:42:39.471Z,13.87
2022-09-06T07:46:11.289Z,13.95
2022-09-06T07:49:40.269Z,14.04
2022-09-06T07:53:14.093Z,14.13
2022-09-06T07:56:45.397Z,14.22
2022-09-06T08:00:13.971Z,14.30
2022-09-06T08:03:40.732Z,14.40
2022-09-06T08:10:54.756Z,14.61
2022-09-06T08:14:46.409Z,14.70
2022-09-06T08:18:34.534Z,14.81
2022-09-06T08:22:01.530Z,14.92
2022-09-06T08:25:30.646Z,15.04
2022-09-06T08:29:00.637Z,15.15
2022-09-06T08:32:27.142Z,15.29
2022-09-06T08:36:00.683Z,15.41
2022-09-06T08:39:37.591Z,15.54
2022-09-06T08:43:04.327Z,15.69
2022-09-06T08:46:38.823Z,15.84
2022-09-06T08:50:08.434Z,16.00
2022-09-06T08:53:38.362Z,16.15
2022-09-06T08:57:20.766Z,16.30
2022-09-06T09:01:03.470Z,16.43
2022-09-06T09:04:34.632Z,16.54
2022-09-06T09:08:16.083Z,16.66
2022-09-06T09:11:46.965Z,16.78
2022-09-06T09:15:18.883Z,16.91
2022-09-06T09:18:49.273Z,17.03
2022-09-06T09:22:19.498Z,17.16
2022-09-06T09:25:47.776Z,17.31
2022-09-06T09:29:17.393Z,17.46
2022-09-06T09:32:47.800Z,17.60
2022-09-06T09:36:16.418Z,17.75
2022-09-06T09:39:43.899Z,17.88
2022-09-06T09:43:21.171Z,18.01
2022-09-06T09:46:48.735Z,18.10
2022-09-06T09:50:28.517Z,18.27
2022-09-06T09:53:58.124Z,18.41
2022-09-06T09:57:27.122Z,18.52
2022-09-06T10:01:19.355Z,18.64
2022-09-06T10:04:51.480Z,18.75
2022-09-06T10:08:18.853Z,18.86
2022-09-06T10:11:56.073Z,18.99
2022-09-06T10:15:38.513Z,19.14
2022-09-06T10:19:26.135Z,19.28
2022-09-06T10:23:02.523Z,19.41
2022-09-06T10:26:36.719Z,19.54
2022-09-06T10:30:06.961Z,19.64
2022-09-06T10:33:50.328Z,19.77
2022-09-06T10:37:39.796Z,19.89
2022-09-06T10:41:23.418Z,20.05
2022-09-06T10:45:06.609Z,20.21
2022-09-06T10:48:37.415Z,20.34
2022-09-06T10:52:15.366Z,20.47
2022-09-06T10:55:48.253Z,20.66
2022-09-06T10:59:40.373Z,20.83
2022-09-06T11:07:17.822Z,21.15
2022-09-06T11:10:48.515Z,21.29
2022-09-06T11:14:16.773Z,21.38
2022-09-06T11:17:57.396Z,21.48
2022-09-06T11:22:04.248Z,21.59
2022-09-06T11:26:03.556Z,21.71
2022-09-06T11:29:36.257Z,21.78
2022-09-06T11:33:14.363Z,21.88
2022-09-06T11:36:47.856Z,21.92
2022-09-06T11:43:56.599Z,21.97
2022-09-06T11:47:42.456Z,22.09
2022-09-06T11:51:12.786Z,22.31
2022-09-06T11:54:46.848Z,22.45
2022-09-06T11:58:27.149Z,22.61
2022-09-06T12:02:15.930Z,22.77
2022-09-06T12:06:13.156Z,22.71
2022-09-06T12:09:41.404Z,22.52
2022-09-06T12:13:41.406Z,22.59
2022-09-06T12:17:29.040Z,22.92
2022-09-06T12:21:10.660Z,23.28
2022-09-06T12:24:59.882Z,23.46
2022-09-06T12:28:40.321Z,23.39
2022-09-06T12:32:08.850Z,23.18
2022-09-06T12:39:24.942Z,22.83
2022-09-06T12:42:53.123Z,23.04
2022-09-06T12:46:20.294Z,23.40
2022-09-06T12:49:47.641Z,23.73
2022-09-06T12:53:25.690Z,23.73
2022-09-06T12:56:53.154Z,23.78
2022-09-06T13:00:21.697Z,23.88
2022-09-06T13:04:01.307Z,24.06
2022-09-06T13:07:34.586Z,24.30
2022-09-06T13:11:02.110Z,24.41
2022-09-06T13:14:32.646Z,24.59
2022-09-06T13:18:23.709Z,24.78
2022-09-06T13:21:51.118Z,24.93
2022-09-06T13:25:27.409Z,25.17
2022-09-06T13:28:54.637Z,25.45
2022-09-06T13:32:21.691Z,25.59
2022-09-06T13:36:06.147Z,25.58
2022-09-06T13:39:38.895Z,25.62
2022-09-06T13:43:15.455Z,25.73
2022-09-06T13:46:47.051Z,25.65
2022-09-06T13:50:14.483Z,25.37
2022-09-06T13:53:41.765Z,24.97
2022-09-06T13:57:10.069Z,24.60
2022-09-06T14:00:38.040Z,24.35
2022-09-06T14:04:07.314Z,24.27
2022-09-06T14:07:35.015Z,24.37
2022-09-06T14:11:03.013Z,24.49
2022-09-06T14:14:30.269Z,24.49
2022-09-06T14:17:57.674Z,24.47
2022-09-06T14:21:25.604Z,24.33
2022-09-06T14:24:55.539Z,24.27
2022-09-06T14:28:22.826Z,24.32
2022-09-06T14:31:49.952Z,24.38
2022-09-06T14:35:17.154Z,24.34
2022-09-06T14:38:45.959Z,24.14
2022-09-06T14:42:13.454Z,24.02
2022-09-06T14:45:40.466Z,23.91
2022-09-06T14:49:10.393Z,23.74
2022-09-06T14:52:39.021Z,23.50
2022-09-06T14:56:12.733Z,23.26
2022-09-06T14:59:39.961Z,23.12
2022-09-06T15:03:16.576Z,23.00
2022-09-06T15:06:49.301Z,22.87
2022-09-06T15:10:16.623Z,22.68
2022-09-06T15:13:44.303Z,22.47
2022-09-06T15:17:12.597Z,22.25
2022-09-06T15:20:39.996Z,22.07
2022-09-06T15:24:11.542Z,21.89
2022-09-06T15:27:39.241Z,21.75
2022-09-06T15:31:06.117Z,21.59
2022-09-06T15:34:34.020Z,21.45
2022-09-06T15:38:01.459Z,21.32
2022-09-06T15:41:30.210Z,21.19
2022-09-06T15:44:56.955Z,21.08
2022-09-06T15:48:26.876Z,20.98
2022-09-06T15:51:54.600Z,20.87
2022-09-06T15:55:41.619Z,20.75
2022-09-06T15:59:10.475Z,20.65
2022-09-06T16:02:37.952Z,20.55
2022-09-06T16:06:26.474Z,20.43
2022-09-06T16:09:54.128Z,20.33
2022-09-06T16:13:21.053Z,20.24
2022-09-06T16:16:48.036Z,20.14
2022-09-06T16:20:15.682Z,20.05
2022-09-06T16:23:44.978Z,19.96
2022-09-06T16:27:13.273Z,19.86
2022-09-06T16:30:44.608Z,19.76
2022-09-06T16:34:14.424Z,19.67
2022-09-06T16:37:46.797Z,19.56
2022-09-06T16:41:18.483Z,19.47
2022-09-06T16:44:45.786Z,19.36
2022-09-06T16:48:16.149Z,19.28
2022-09-06T16:51:45.181Z,19.19
2022-09-06T16:55:16.025Z,19.08
2022-09-06T16:58:43.966Z,18.96
2022-09-06T17:02:14.797Z,18.83
2022-09-06T17:05:43.044Z,18.71
2022-09-06T17:09:10.261Z,18.60
2022-09-06T17:12:37.342Z,18.50
2022-09-06T17:16:22.495Z,18.40
2022-09-06T17:19:51.188Z,18.29
2022-09-06T17:23:19.842Z,18.18
2022-09-06T17:26:51.230Z,18.08
2022-09-06T17:30:21.636Z,17.95
2022-09-06T17:33:49.606Z,17.83
2022-09-06T17:37:17.452Z,17.72
2022-09-06T17:40:46.398Z,17.61
2022-09-06T17:44:16.772Z,17.50
2022-09-06T17:47:45.854Z,17.39
2022-09-06T17:51:18.123Z,17.28
2022-09-06T17:54:46.980Z,17.15
2022-09-06T17:58:14.097Z,17.04
2022-09-06T18:01:42.575Z,16.95
2022-09-06T18:05:11.503Z,16.85
2022-09-06T18:08:41.191Z,16.75
2022-09-06T18:12:10.204Z,16.64
2022-09-06T18:15:42.412Z,16.56
2022-09-06T18:19:10.679Z,16.49
2022-09-06T18:22:39.936Z,16.43
2022-09-06T18:26:09.246Z,16.36
2022-09-06T18:29:37.176Z,16.28
2022-09-06T18:33:06.021Z,16.22
2022-09-06T18:36:33.706Z,16.16
2022-09-06T18:40:04.229Z,16.11
2022-09-06T18:43:42.647Z,16.05
2022-09-06T18:47:13.598Z,15.98
2022-09-06T18:50:42.139Z,15.92
2022-09-06T18:54:16.121Z,15.87
2022-09-06T18:57:41.518Z,15.81
2022-09-06T19:01:10.424Z,15.72
2022-09-06T19:04:37.872Z,15.68
2022-09-06T19:08:04.926Z,15.63
2022-09-06T19:11:32.906Z,15.59
2022-09-06T19:15:02.643Z,15.54
2022-09-06T19:18:31.598Z,15.50
2022-09-06T19:22:00.848Z,15.44
2022-09-06T19:25:32.792Z,15.39
2022-09-06T19:29:03.749Z,15.34
2022-09-06T19:32:30.849Z,15.28
2022-09-06T19:36:11.619Z,15.21
2022-09-06T19:39:41.140Z,15.16
2022-09-06T19:43:12.550Z,15.09
2022-09-06T19:46:45.579Z,15.03
2022-09-06T19:50:17.173Z,14.95
2022-09-06T19:53:45.279Z,14.87
2022-09-06T19:57:12.461Z,14.81
2022-09-06T20:00:43.775Z,14.75
2022-09-06T20:04:13.419Z,14.68
2022-09-06T20:07:40.495Z,14.61
2022-09-06T20:11:12.879Z,14.54
2022-09-06T20:14:40.915Z,14.45
2022-09-06T20:18:08.425Z,14.39
2022-09-06T20:21:35.581Z,14.33
2022-09-06T20:25:02.394Z,14.26
2022-09-06T20:28:30.025Z,14.19
2022-09-06T20:32:00.565Z,14.14
2022-09-06T20:35:30.180Z,14.08
2022-09-06T20:38:57.765Z,14.03
2022-09-06T20:42:26.391Z,13.98
2022-09-06T20:45:53.746Z,13.94
2022-09-06T20:49:21.936Z,13.88
2022-09-06T20:52:49.013Z,13.84
2022-09-06T20:56:20.962Z,13.80
2022-09-06T20:59:48.276Z,13.75
2022-09-06T21:03:15.223Z,13.70
2022-09-06T21:06:43.901Z,13.62
2022-09-06T21:10:11.965Z,13.53
2022-09-06T21:13:39.496Z,13.44
2022-09-06T21:17:06.884Z,13.36
2022-09-06T21:20:34.337Z,13.28
2022-09-06T21:24:03.497Z,13.19
2022-09-06T21:27:31.107Z,13.10
2022-09-06T21:31:10.359Z,13.03
2022-09-06T21:34:40.433Z,12.97
2022-09-06T21:38:12.091Z,12.94
2022-09-06T21:41:44.380Z,12.90
2022-09-06T21:45:22.025Z,12.86
2022-09-06T21:48:51.773Z,12.80
2022-09-06T21:52:34.559Z,12.76
2022-09-06T21:56:11.500Z,12.70
2022-09-06T21:59:45.921Z,12.63
2022-09-06T22:03:13.684Z,12.57
2022-09-06T22:06:41.103Z,12.53
2022-09-06T22:10:14.049Z,12.48
2022-09-06T22:13:44.266Z,12.42
2022-09-06T22:17:17.549Z,12.35
2022-09-06T22:20:46.936Z,12.30
2022-09-06T22:24:17.888Z,12.26
2022-09-06T22:27:45.145Z,12.23
2022-09-06T22:31:13.868Z,12.20
2022-09-06T22:34:41.939Z,12.17
2022-09-06T22:38:09.098Z,12.14
2022-09-06T22:41:36.914Z,12.10
2022-09-06T22:45:05.164Z,12.06
2022-09-06T22:48:41.775Z,12.03
2022-09-06T22:52:14.418Z,11.99
2022-09-06T22:55:41.136Z,11.94
2022-09-06T22:59:08.934Z,11.91
2022-09-06T23:02:35.915Z,11.91
2022-09-06T23:06:17.546Z,11.90
2022-09-06T23:09:58.558Z,11.87
2022-09-06T23:13:40.359Z,11.83
2022-09-06T23:17:10.806Z,11.81
2022-09-06T23:20:47.536Z,11.77
2022-09-06T23:24:20.055Z,11.74
2022-09-06T23:27:53.072Z,11.70
2022-09-06T23:31:39.572Z,11.67
2022-09-06T23:35:07.269Z,11.66
2022-09-06T23:38:35.204Z,11.67
2022-09-06T23:42:07.751Z,11.70
2022-09-06T23:45:41.914Z,11.74
2022-09-06T23:49:09.733Z,11.75
2022-09-06T23:52:36.837Z,11.76
2022-09-06T23:56:04.096Z,11.76
2022-09-06T23:59:31.204Z,11.75
